createdAt,value
2023-01-15T00:00:35.162Z,74.99
2023-01-15T00:03:32.251Z,74.78
2023-01-15T00:06:09.737Z,74.57
2023-01-15T00:08:46.418Z,74.35
2023-01-15T00:11:23.849Z,74.09
2023-01-15T00:14:00.645Z,73.86
2023-01-15T00:16:37.560Z,73.66
2023-01-15T00:19:15.966Z,73.41
2023-01-15T00:21:54.278Z,73.11
2023-01-15T00:24:48.494Z,72.89
2023-01-15T00:27:39.930Z,72.70
2023-01-15T00:30:20.448Z,72.48
2023-01-15T00:32:56.941Z,72.28
2023-01-15T00:35:33.305Z,72.04
2023-01-15T00:38:09.677Z,71.82
2023-01-15T00:40:46.368Z,71.68
2023-01-15T00:43:22.979Z,71.44
2023-01-15T00:46:01.740Z,71.38
2023-01-15T00:48:39.748Z,71.29
2023-01-15T00:51:16.033Z,71.06
2023-01-15T00:53:52.484Z,70.91
2023-01-15T00:56:28.946Z,70.81
2023-01-15T00:59:08.188Z,70.70
2023-01-15T01:01:44.800Z,70.60
2023-01-15T01:04:21.354Z,70.33
2023-01-15T01:06:57.746Z,70.08
2023-01-15T01:09:35.337Z,69.96
2023-01-15T01:12:13.057Z,69.86
2023-01-15T01:14:49.439Z,69.69
2023-01-15T01:17:25.804Z,69.60
2023-01-15T01:20:02.231Z,69.52
2023-01-15T01:22:38.643Z,69.29
2023-01-15T01:25:16.008Z,68.98
2023-01-15T01:27:53.854Z,68.86
2023-01-15T01:30:30.207Z,68.70
2023-01-15T01:33:07.422Z,68.54
2023-01-15T01:35:51.005Z,68.39
2023-01-15T01:38:27.303Z,68.24
2023-01-15T01:41:04.086Z,67.97
2023-01-15T01:44:00.952Z,67.92
2023-01-15T01:46:39.293Z,67.90
2023-01-15T01:49:17.532Z,67.81
2023-01-15T01:52:01.704Z,67.49
2023-01-15T01:54:41.800Z,67.03
2023-01-15T01:57:21.339Z,66.62
2023-01-15T01:59:59.032Z,66.53
2023-01-15T02:02:36.633Z,66.35
2023-01-15T02:05:25.204Z,65.87
2023-01-15T02:08:03.010Z,66.01
2023-01-15T02:10:41.189Z,65.96
2023-01-15T02:13:27.082Z,65.86
2023-01-15T02:16:16.738Z,65.78
2023-01-15T02:19:08.849Z,65.72
2023-01-15T02:21:53.094Z,65.65
2023-01-15T02:24:44.930Z,65.26
2023-01-15T02:27:24.008Z,64.89
2023-01-15T02:30:11.564Z,64.96
2023-01-15T02:33:03.710Z,64.85
2023-01-15T02:35:46.776Z,64.42
2023-01-15T02:38:26.886Z,64.44
2023-01-15T02:41:08.313Z,64.25
2023-01-15T02:43:51.923Z,64.29
2023-01-15T02:46:36.441Z,64.02
2023-01-15T02:49:19.155Z,63.68
2023-01-15T02:52:10.419Z,63.63
2023-01-15T02:55:03.429Z,63.69
2023-01-15T02:57:44.847Z,63.78
2023-01-15T03:00:27.688Z,63.83
2023-01-15T03:03:15.071Z,63.73
2023-01-15T03:06:03.394Z,63.59
2023-01-15T03:08:40.253Z,63.36
2023-01-15T03:11:21.297Z,63.13
2023-01-15T03:14:16.663Z,63.22
2023-01-15T03:16:58.335Z,62.85
2023-01-15T03:19:49.819Z,62.61
2023-01-15T03:22:34.452Z,62.63
2023-01-15T03:25:18.392Z,62.70
2023-01-15T03:28:04.230Z,63.03
2023-01-15T03:30:40.967Z,62.98
2023-01-15T03:33:18.265Z,63.04
2023-01-15T03:35:59.691Z,63.02
2023-01-15T03:39:11.900Z,63.20
2023-01-15T03:42:17.379Z,63.12
2023-01-15T03:45:04.640Z,63.13
2023-01-15T03:48:01.543Z,62.92
2023-01-15T03:50:49.559Z,63.06
2023-01-15T03:53:35.752Z,62.82
2023-01-15T03:56:25.018Z,62.78
2023-01-15T03:59:10.835Z,62.86
2023-01-15T04:02:01.381Z,62.85
2023-01-15T04:04:38.578Z,62.71
2023-01-15T04:07:16.025Z,62.87
2023-01-15T04:09:53.179Z,62.72
2023-01-15T04:12:30.507Z,62.42
2023-01-15T04:15:08.637Z,62.60
2023-01-15T04:17:45.375Z,62.57
2023-01-15T04:20:22.126Z,62.13
2023-01-15T04:22:58.595Z,61.86
2023-01-15T04:25:34.809Z,61.94
2023-01-15T04:28:13.537Z,61.74
2023-01-15T04:30:49.788Z,61.70
2023-01-15T04:33:26.105Z,61.53
2023-01-15T04:36:06.772Z,61.26
2023-01-15T04:38:43.988Z,60.98
2023-01-15T04:41:37.888Z,60.95
2023-01-15T04:44:14.186Z,61.29
2023-01-15T04:46:51.331Z,61.51
2023-01-15T04:49:27.770Z,61.43
2023-01-15T04:52:04.413Z,61.47
2023-01-15T04:54:40.681Z,61.41
2023-01-15T04:57:18.775Z,61.63
2023-01-15T04:59:55.259Z,61.87
2023-01-15T05:02:31.624Z,62.01
2023-01-15T05:05:09.545Z,62.05
2023-01-15T05:07:45.883Z,61.94
2023-01-15T05:10:22.660Z,61.90
2023-01-15T05:12:58.923Z,62.03
2023-01-15T05:15:35.184Z,62.17
2023-01-15T05:18:14.976Z,62.10
2023-01-15T05:20:51.507Z,62.25
2023-01-15T05:23:27.759Z,61.97
2023-01-15T05:26:07.466Z,61.76
2023-01-15T05:28:44.087Z,61.80
2023-01-15T05:31:22.211Z,61.51
2023-01-15T05:33:59.954Z,61.56
2023-01-15T05:36:37.760Z,61.58
2023-01-15T05:39:14.162Z,61.77
2023-01-15T05:41:50.757Z,61.91
2023-01-15T05:44:31.035Z,61.71
2023-01-15T05:47:08.150Z,61.82
2023-01-15T05:49:45.286Z,61.67
2023-01-15T05:52:21.500Z,61.52
2023-01-15T05:54:57.787Z,61.58
2023-01-15T05:57:34.084Z,61.65
2023-01-15T06:00:14.570Z,61.49
2023-01-15T06:02:55.086Z,61.36
2023-01-15T06:05:31.475Z,61.48
2023-01-15T06:08:08.349Z,61.37
2023-01-15T06:10:47.291Z,61.02
2023-01-15T06:13:23.594Z,60.85
2023-01-15T06:16:00.315Z,60.68
2023-01-15T06:18:36.828Z,60.22
2023-01-15T06:21:15.357Z,60.00
2023-01-15T06:23:54.190Z,59.99
2023-01-15T06:26:30.792Z,59.63
2023-01-15T06:29:07.138Z,59.22
2023-01-15T06:31:43.585Z,59.27
2023-01-15T06:34:20.036Z,59.17
2023-01-15T06:36:56.302Z,58.91
2023-01-15T06:39:32.943Z,58.69
2023-01-15T06:42:27.962Z,58.66
2023-01-15T06:45:22.280Z,58.49
2023-01-15T06:47:59.422Z,58.43
2023-01-15T06:50:35.678Z,58.42
2023-01-15T06:53:12.260Z,58.18
2023-01-15T06:55:48.971Z,58.06
2023-01-15T06:58:25.400Z,58.10
2023-01-15T07:01:01.837Z,58.04
2023-01-15T07:03:38.250Z,58.08
2023-01-15T07:06:17.046Z,57.84
2023-01-15T07:08:53.870Z,57.71
2023-01-15T07:11:30.661Z,57.65
2023-01-15T07:14:07.059Z,57.57
2023-01-15T07:16:43.321Z,57.20
2023-01-15T07:19:20.382Z,57.06
2023-01-15T07:21:56.701Z,57.26
2023-01-15T07:24:33.419Z,56.80
2023-01-15T07:27:10.507Z,56.98
2023-01-15T07:29:46.913Z,57.13
2023-01-15T07:32:23.363Z,57.12
2023-01-15T07:34:59.641Z,56.60
2023-01-15T07:37:36.023Z,56.11
2023-01-15T07:40:15.485Z,56.39
2023-01-15T07:43:09.532Z,55.90
2023-01-15T07:46:00.567Z,56.10
2023-01-15T07:48:54.637Z,55.74
2023-01-15T07:51:30.918Z,55.74
2023-01-15T07:54:07.523Z,56.02
2023-01-15T07:56:43.968Z,55.09
2023-01-15T07:59:20.458Z,55.50
2023-01-15T08:01:57.135Z,55.39
2023-01-15T08:04:33.745Z,54.69
2023-01-15T08:07:11.112Z,54.67
2023-01-15T08:09:47.348Z,54.80
2023-01-15T08:12:41.270Z,54.68
2023-01-15T08:15:17.961Z,55.05
2023-01-15T08:17:55.373Z,54.52
2023-01-15T08:20:31.954Z,54.08
2023-01-15T08:23:09.630Z,54.14
2023-01-15T08:25:46.020Z,53.18
2023-01-15T08:28:22.444Z,53.17
2023-01-15T08:30:58.627Z,52.71
2023-01-15T08:33:34.940Z,52.12
2023-01-15T08:36:12.480Z,51.65
2023-01-15T08:38:51.506Z,51.55
2023-01-15T08:41:28.041Z,51.29
2023-01-15T08:44:04.638Z,51.11
2023-01-15T08:46:41.135Z,51.00
2023-01-15T08:49:17.895Z,51.52
2023-01-15T08:51:54.430Z,51.01
2023-01-15T08:54:31.016Z,51.19
2023-01-15T08:57:09.364Z,51.19
2023-01-15T08:59:45.935Z,49.97
2023-01-15T09:02:22.351Z,49.92
2023-01-15T09:04:58.869Z,50.12
2023-01-15T09:07:37.337Z,50.37
2023-01-15T09:10:15.743Z,50.44
2023-01-15T09:12:52.759Z,50.28
2023-01-15T09:15:29.696Z,50.51
2023-01-15T09:18:06.127Z,49.70
2023-01-15T09:20:42.597Z,49.84
2023-01-15T09:23:19.195Z,49.60
2023-01-15T09:26:05.304Z,49.63
2023-01-15T09:28:41.533Z,48.90
2023-01-15T09:31:17.780Z,48.70
2023-01-15T09:33:54.292Z,49.02
2023-01-15T09:36:35.182Z,49.03
2023-01-15T09:39:11.945Z,48.95
2023-01-15T09:42:16.724Z,49.01
2023-01-15T09:45:18.871Z,48.87
2023-01-15T09:48:25.728Z,49.05
2023-01-15T09:51:23.920Z,49.49
2023-01-15T09:54:24.895Z,49.28
2023-01-15T09:57:02.137Z,48.90
2023-01-15T09:59:44.501Z,49.45
2023-01-15T10:02:30.438Z,48.84
2023-01-15T10:05:18.819Z,48.71
2023-01-15T10:08:07.739Z,48.48
2023-01-15T10:10:51.421Z,48.48
2023-01-15T10:13:42.858Z,48.12
2023-01-15T10:16:27.004Z,47.68
2023-01-15T10:19:05.745Z,47.95
2023-01-15T10:21:52.386Z,47.99
2023-01-15T10:24:39.324Z,47.99
2023-01-15T10:27:23.788Z,48.01
2023-01-15T10:30:13.441Z,47.34
2023-01-15T10:33:02.296Z,47.46
2023-01-15T10:35:58.689Z,47.62
2023-01-15T10:38:44.768Z,48.12
2023-01-15T10:42:06.502Z,48.02
2023-01-15T10:44:55.685Z,48.02
2023-01-15T10:47:39.111Z,48.18
2023-01-15T10:50:26.257Z,47.83
2023-01-15T10:53:18.817Z,47.68
2023-01-15T10:56:00.395Z,47.56
2023-01-15T10:58:48.376Z,47.49
2023-01-15T11:01:29.927Z,47.49
2023-01-15T11:04:06.924Z,47.63
2023-01-15T11:06:43.657Z,47.59
2023-01-15T11:09:32.475Z,47.52
2023-01-15T11:12:44.624Z,47.40
2023-01-15T11:15:45.542Z,47.37
2023-01-15T11:18:48.381Z,47.26
2023-01-15T11:21:27.763Z,47.07
2023-01-15T11:24:04.911Z,47.27
2023-01-15T11:26:42.717Z,46.61
2023-01-15T11:29:35.143Z,46.70
2023-01-15T11:32:31.274Z,46.98
2023-01-15T11:35:20.255Z,47.00
2023-01-15T11:38:07.651Z,46.81
2023-01-15T11:40:55.380Z,46.90
2023-01-15T11:43:51.581Z,47.01
2023-01-15T11:46:58.057Z,47.20
2023-01-15T11:49:51.897Z,47.26
2023-01-15T11:52:29.934Z,47.87
2023-01-15T11:55:11.737Z,48.16
2023-01-15T11:57:50.543Z,48.58
2023-01-15T12:00:34.046Z,48.71
2023-01-15T12:03:22.152Z,48.81
2023-01-15T12:06:08.998Z,49.55
2023-01-15T12:08:58.385Z,50.49
2023-01-15T12:12:01.001Z,51.33
2023-01-15T12:15:13.978Z,53.35
2023-01-15T12:18:43.371Z,55.15
2023-01-15T12:21:45.963Z,56.62
2023-01-15T12:25:17.569Z,57.39
2023-01-15T12:28:11.578Z,57.81
2023-01-15T12:31:01.342Z,58.55
2023-01-15T12:33:53.846Z,59.01
2023-01-15T12:36:38.781Z,59.44
2023-01-15T12:39:26.956Z,60.44
2023-01-15T12:42:42.394Z,61.12
2023-01-15T12:45:24.478Z,61.67
2023-01-15T12:48:13.560Z,62.32
2023-01-15T12:50:53.383Z,63.24
2023-01-15T12:53:42.677Z,63.69
2023-01-15T12:56:29.250Z,64.02
2023-01-15T12:59:20.054Z,64.43
2023-01-15T13:02:12.991Z,64.73
2023-01-15T13:04:57.343Z,64.54
2023-01-15T13:07:43.421Z,64.90
2023-01-15T13:10:25.229Z,64.93
2023-01-15T13:13:20.795Z,65.02
2023-01-15T13:16:20.563Z,65.11
2023-01-15T13:19:22.991Z,64.83
2023-01-15T13:22:03.349Z,64.85
2023-01-15T13:25:17.940Z,65.11
2023-01-15T13:28:22.880Z,65.17
2023-01-15T13:31:23.840Z,65.32
2023-01-15T13:34:08.913Z,65.55
2023-01-15T13:36:49.515Z,65.40
2023-01-15T13:39:33.306Z,65.36
2023-01-15T13:42:34.463Z,65.12
2023-01-15T13:45:36.907Z,65.42
2023-01-15T13:48:20.120Z,65.74
2023-01-15T13:51:01.789Z,65.96
2023-01-15T13:53:46.439Z,65.88
2023-01-15T13:56:36.254Z,65.68
2023-01-15T13:59:44.063Z,65.39
2023-01-15T14:02:34.648Z,65.13
2023-01-15T14:05:33.280Z,65.33
2023-01-15T14:08:29.419Z,65.02
2023-01-15T14:11:06.321Z,64.86
2023-01-15T14:14:31.040Z,64.83
2023-01-15T14:17:41.158Z,64.72
2023-01-15T14:20:59.302Z,64.52
2023-01-15T14:24:01.072Z,64.51
2023-01-15T14:26:52.816Z,64.61
2023-01-15T14:30:14.938Z,64.52
2023-01-15T14:33:11.588Z,64.45
2023-01-15T14:35:52.246Z,64.19
2023-01-15T14:38:33.295Z,64.12
2023-01-15T14:41:13.739Z,64.05
2023-01-15T14:43:55.899Z,64.22
2023-01-15T14:46:38.823Z,63.84
2023-01-15T14:49:50.162Z,63.84
2023-01-15T14:52:29.389Z,63.88
2023-01-15T14:55:11.489Z,63.73
2023-01-15T14:57:58.439Z,63.90
2023-01-15T15:00:43.912Z,64.14
2023-01-15T15:03:32.100Z,64.20
2023-01-15T15:06:13.442Z,64.24
2023-01-15T15:08:51.680Z,64.48
2023-01-15T15:11:58.454Z,64.64
2023-01-15T15:14:40.022Z,64.90
2023-01-15T15:17:32.517Z,65.20
2023-01-15T15:20:31.565Z,65.30
2023-01-15T15:23:29.409Z,65.43
2023-01-15T15:26:22.140Z,65.57
2023-01-15T15:29:08.411Z,65.79
2023-01-15T15:31:53.772Z,65.82
2023-01-15T15:34:34.571Z,65.86
2023-01-15T15:37:21.640Z,65.90
2023-01-15T15:40:03.890Z,65.66
2023-01-15T15:43:04.807Z,65.88
2023-01-15T15:45:59.104Z,65.82
2023-01-15T15:48:45.889Z,65.89
2023-01-15T15:51:40.033Z,65.94
2023-01-15T15:54:23.784Z,66.04
2023-01-15T15:57:09.781Z,66.22
2023-01-15T15:59:53.219Z,66.37
2023-01-15T16:02:40.679Z,66.23
2023-01-15T16:05:31.780Z,66.33
2023-01-15T16:08:24.185Z,66.47
2023-01-15T16:11:05.585Z,66.44
2023-01-15T16:13:47.199Z,66.37
2023-01-15T16:16:26.501Z,66.45
2023-01-15T16:19:05.265Z,66.44
2023-01-15T16:21:45.354Z,66.48
2023-01-15T16:24:34.384Z,66.52
2023-01-15T16:27:19.813Z,66.58
2023-01-15T16:29:57.974Z,66.48
2023-01-15T16:32:37.085Z,66.61
2023-01-15T16:35:24.616Z,66.59
2023-01-15T16:38:04.509Z,66.67
2023-01-15T16:40:49.484Z,66.78
2023-01-15T16:43:29.010Z,67.01
2023-01-15T16:46:17.594Z,67.30
2023-01-15T16:49:27.772Z,67.55
2023-01-15T16:52:45.328Z,68.05
2023-01-15T16:55:47.130Z,68.53
2023-01-15T16:58:42.168Z,68.92
2023-01-15T17:01:43.215Z,69.28
2023-01-15T17:04:31.532Z,69.73
2023-01-15T17:07:18.057Z,70.23
2023-01-15T17:09:58.980Z,70.69
2023-01-15T17:12:39.952Z,71.06
2023-01-15T17:15:44.768Z,71.45
2023-01-15T17:18:34.447Z,72.15
2023-01-15T17:21:18.696Z,72.63
2023-01-15T17:23:55.797Z,73.28
2023-01-15T17:26:32.698Z,73.53
2023-01-15T17:29:10.182Z,73.91
2023-01-15T17:31:47.247Z,74.88
2023-01-15T17:34:25.745Z,75.62
2023-01-15T17:37:02.349Z,76.25
2023-01-15T17:39:39.278Z,76.58
2023-01-15T17:42:22.562Z,76.96
2023-01-15T17:44:59.118Z,77.23
2023-01-15T17:47:35.685Z,77.69
2023-01-15T17:50:14.880Z,77.98
2023-01-15T17:52:51.820Z,78.38
2023-01-15T17:55:42.931Z,78.48
2023-01-15T17:58:43.424Z,78.77
2023-01-15T18:01:46.155Z,79.14
2023-01-15T18:04:46.396Z,79.47
2023-01-15T18:07:27.552Z,80.01
2023-01-15T18:10:06.205Z,80.20
2023-01-15T18:12:42.755Z,80.62
2023-01-15T18:15:20.405Z,81.13
2023-01-15T18:17:57.273Z,81.07
2023-01-15T18:20:33.959Z,81.12
2023-01-15T18:23:10.599Z,81.02
2023-01-15T18:25:47.828Z,81.18
2023-01-15T18:28:25.332Z,81.22
2023-01-15T18:31:05.482Z,81.43
2023-01-15T18:33:42.174Z,81.60
2023-01-15T18:36:19.713Z,81.83
2023-01-15T18:39:02.588Z,81.96
2023-01-15T18:41:58.606Z,82.22
2023-01-15T18:44:53.071Z,82.30
2023-01-15T18:47:31.387Z,82.64
2023-01-15T18:50:09.238Z,82.72
2023-01-15T18:52:52.054Z,82.89
2023-01-15T18:55:29.946Z,83.10
2023-01-15T18:58:06.526Z,83.36
2023-01-15T19:00:43.409Z,83.58
2023-01-15T19:03:19.963Z,83.38
2023-01-15T19:05:56.542Z,83.38
2023-01-15T19:08:33.266Z,83.49
2023-01-15T19:11:16.599Z,83.51
2023-01-15T19:14:07.694Z,83.59
2023-01-15T19:17:02.811Z,83.56
2023-01-15T19:19:42.337Z,83.65
2023-01-15T19:22:36.403Z,83.67
2023-01-15T19:25:14.646Z,83.71
2023-01-15T19:27:51.274Z,83.72
2023-01-15T19:30:29.479Z,83.83
2023-01-15T19:33:07.429Z,83.81
2023-01-15T19:35:47.317Z,83.94
2023-01-15T19:38:24.642Z,83.88
2023-01-15T19:41:22.069Z,83.87
2023-01-15T19:44:16.961Z,83.90
2023-01-15T19:47:12.051Z,84.18
2023-01-15T19:50:07.346Z,84.15
2023-01-15T19:52:47.787Z,84.11
2023-01-15T19:55:26.453Z,84.19
2023-01-15T19:58:07.520Z,84.28
2023-01-15T20:00:48.457Z,84.31
2023-01-15T20:03:25.974Z,84.33
2023-01-15T20:06:03.606Z,84.34
2023-01-15T20:08:42.889Z,84.45
2023-01-15T20:11:21.037Z,84.53
2023-01-15T20:13:59.224Z,84.53
2023-01-15T20:16:39.819Z,84.54
2023-01-15T20:19:19.079Z,84.52
2023-01-15T20:21:58.992Z,84.61
2023-01-15T20:24:42.289Z,84.62
2023-01-15T20:27:22.697Z,84.75
2023-01-15T20:30:02.985Z,84.69
2023-01-15T20:32:45.240Z,84.62
2023-01-15T20:35:29.356Z,84.61
2023-01-15T20:38:08.870Z,84.71
2023-01-15T20:40:49.197Z,84.99
2023-01-15T20:43:46.157Z,84.96
2023-01-15T20:46:25.346Z,85.01
2023-01-15T20:49:21.092Z,84.99
2023-01-15T20:52:01.488Z,85.05
2023-01-15T20:54:39.972Z,85.10
2023-01-15T20:57:17.987Z,85.11
2023-01-15T20:59:56.644Z,85.21
2023-01-15T21:02:33.969Z,85.20
2023-01-15T21:05:13.459Z,85.19
2023-01-15T21:07:50.746Z,85.24
2023-01-15T21:10:28.854Z,85.31
2023-01-15T21:13:05.575Z,85.37
2023-01-15T21:15:44.057Z,85.35
2023-01-15T21:18:21.071Z,85.46
2023-01-15T21:20:58.210Z,85.48
2023-01-15T21:23:34.610Z,85.50
2023-01-15T21:26:11.693Z,85.54
2023-01-15T21:28:48.020Z,85.53
2023-01-15T21:31:24.819Z,85.50
2023-01-15T21:34:01.367Z,85.54
2023-01-15T21:36:38.105Z,85.60
2023-01-15T21:39:18.297Z,85.70
2023-01-15T21:42:12.125Z,85.77
2023-01-15T21:44:48.579Z,85.89
2023-01-15T21:47:26.477Z,85.91
2023-01-15T21:50:03.153Z,85.96
2023-01-15T21:52:39.503Z,86.09
2023-01-15T21:55:16.286Z,86.23
2023-01-15T21:57:52.662Z,86.33
2023-01-15T22:00:29.535Z,86.25
2023-01-15T22:03:05.900Z,86.28
2023-01-15T22:05:42.373Z,86.33
2023-01-15T22:08:18.751Z,86.31
2023-01-15T22:10:54.957Z,86.30
2023-01-15T22:13:32.852Z,86.31
2023-01-15T22:16:10.690Z,86.42
2023-01-15T22:18:47.524Z,86.47
2023-01-15T22:21:23.844Z,86.47
2023-01-15T22:24:00.519Z,86.40
2023-01-15T22:26:38.112Z,86.43
2023-01-15T22:29:15.593Z,86.45
2023-01-15T22:31:52.691Z,86.44
2023-01-15T22:34:30.473Z,86.34
2023-01-15T22:37:07.264Z,86.23
2023-01-15T22:39:43.753Z,86.12
2023-01-15T22:42:28.048Z,86.16
2023-01-15T22:45:05.113Z,86.13
2023-01-15T22:47:41.415Z,86.10
2023-01-15T22:50:19.516Z,86.03
2023-01-15T22:52:56.526Z,85.98
2023-01-15T22:55:32.880Z,85.89
2023-01-15T22:58:09.342Z,85.84
2023-01-15T23:00:45.806Z,85.76
2023-01-15T23:03:22.489Z,85.71
2023-01-15T23:06:03.685Z,85.70
2023-01-15T23:08:40.712Z,85.70
2023-01-15T23:11:19.155Z,85.69
2023-01-15T23:13:56.029Z,85.71
2023-01-15T23:16:32.706Z,85.73
2023-01-15T23:19:09.849Z,85.70
2023-01-15T23:21:47.092Z,85.68
2023-01-15T23:24:23.567Z,85.66
2023-01-15T23:26:59.908Z,85.58
2023-01-15T23:29:36.635Z,85.45
2023-01-15T23:32:13.255Z,85.41
2023-01-15T23:34:49.628Z,85.45
2023-01-15T23:37:26.187Z,85.40
2023-01-15T23:40:02.663Z,85.41
2023-01-15T23:42:56.943Z,85.48
2023-01-15T23:45:53.590Z,85.43
2023-01-15T23:48:29.964Z,85.39
2023-01-15T23:51:06.810Z,85.30
2023-01-15T23:53:43.414Z,85.38
2023-01-15T23:56:19.921Z,85.50
2023-01-15T23:58:56.314Z,85.50
